sensor_id;sensor_type;location;lat;lon;timestamp;temperature;humidity
11009;DHT22;5557;51.670;7.788;2023-07-20T00:01:52;15.50;99.90
11009;DHT22;5557;51.670;7.788;2023-07-20T00:04:19;15.40;99.90
11009;DHT22;5557;51.670;7.788;2023-07-20T00:06:46;15.30;99.90
11009;DHT22;5557;51.670;7.788;2023-07-20T00:09:13;15.30;99.90
11009;DHT22;5557;51.670;7.788;2023-07-20T00:11:47;15.20;99.90
11009;DHT22;5557;51.670;7.788;2023-07-20T00:14:15;15.20;99.90
11009;DHT22;5557;51.670;7.788;2023-07-20T00:16:42;15.20;99.90
11009;DHT22;5557;51.670;7.788;2023-07-20T00:19:09;15.30;99.90
11009;DHT22;5557;51.670;7.788;2023-07-20T00:21:37;15.30;99.90
11009;DHT22;5557;51.670;7.788;2023-07-20T00:24:07;15.30;99.90
11009;DHT22;5557;51.670;7.788;2023-07-20T00:26:34;15.40;99.90
11009;DHT22;5557;51.670;7.788;2023-07-20T00:29:01;15.40;99.90
11009;DHT22;5557;51.670;7.788;2023-07-20T00:31:28;15.40;99.90
11009;DHT22;5557;51.670;7.788;2023-07-20T00:33:56;15.50;99.90
11009;DHT22;5557;51.670;7.788;2023-07-20T00:36:24;15.50;99.90
11009;DHT22;5557;51.670;7.788;2023-07-20T00:38:51;15.50;99.90
11009;DHT22;5557;51.670;7.788;2023-07-20T00:41:18;15.40;99.90
11009;DHT22;5557;51.670;7.788;2023-07-20T00:43:45;15.40;99.90
11009;DHT22;5557;51.670;7.788;2023-07-20T00:46:12;15.40;99.90
11009;DHT22;5557;51.670;7.788;2023-07-20T00:48:40;15.40;99.90
11009;DHT22;5557;51.670;7.788;2023-07-20T00:51:08;15.40;99.90
11009;DHT22;5557;51.670;7.788;2023-07-20T00:53:36;15.40;99.90
11009;DHT22;5557;51.670;7.788;2023-07-20T00:56:03;15.40;99.90
11009;DHT22;5557;51.670;7.788;2023-07-20T00:58:31;15.40;99.90
11009;DHT22;5557;51.670;7.788;2023-07-20T01:00:58;15.40;99.90
11009;DHT22;5557;51.670;7.788;2023-07-20T01:03:25;15.40;99.90
11009;DHT22;5557;51.670;7.788;2023-07-20T01:06:21;15.40;99.90
11009;DHT22;5557;51.670;7.788;2023-07-20T01:09:11;15.40;99.90
11009;DHT22;5557;51.670;7.788;2023-07-20T01:12:08;15.40;99.90
11009;DHT22;5557;51.670;7.788;2023-07-20T01:14:37;15.40;99.90
11009;DHT22;5557;51.670;7.788;2023-07-20T01:17:06;15.40;99.90
11009;DHT22;5557;51.670;7.788;2023-07-20T01:19:34;15.40;99.90
11009;DHT22;5557;51.670;7.788;2023-07-20T01:22:21;15.40;99.90
11009;DHT22;5557;51.670;7.788;2023-07-20T01:28:34;15.30;99.90
11009;DHT22;5557;51.670;7.788;2023-07-20T01:31:41;15.40;99.90
11009;DHT22;5557;51.670;7.788;2023-07-20T01:34:12;15.30;99.90
11009;DHT22;5557;51.670;7.788;2023-07-20T01:36:43;15.30;99.90
11009;DHT22;5557;51.670;7.788;2023-07-20T01:39:13;15.30;99.90
11009;DHT22;5557;51.670;7.788;2023-07-20T01:41:41;15.30;99.90
11009;DHT22;5557;51.670;7.788;2023-07-20T01:44:09;15.40;99.90
11009;DHT22;5557;51.670;7.788;2023-07-20T01:46:38;15.40;99.90
11009;DHT22;5557;51.670;7.788;2023-07-20T01:49:07;15.40;99.90
11009;DHT22;5557;51.670;7.788;2023-07-20T01:51:37;15.40;99.90
11009;DHT22;5557;51.670;7.788;2023-07-20T01:54:06;15.40;99.90
11009;DHT22;5557;51.670;7.788;2023-07-20T01:56:34;15.40;99.90
11009;DHT22;5557;51.670;7.788;2023-07-20T01:59:03;15.40;99.90
11009;DHT22;5557;51.670;7.788;2023-07-20T02:01:31;15.50;99.90
11009;DHT22;5557;51.670;7.788;2023-07-20T02:03:59;15.40;99.90
11009;DHT22;5557;51.670;7.788;2023-07-20T02:06:27;15.40;99.90
11009;DHT22;5557;51.670;7.788;2023-07-20T02:08:54;15.40;99.90
11009;DHT22;5557;51.670;7.788;2023-07-20T02:11:23;15.40;99.90
11009;DHT22;5557;51.670;7.788;2023-07-20T02:13:52;15.40;99.90
11009;DHT22;5557;51.670;7.788;2023-07-20T02:16:20;15.40;99.90
11009;DHT22;5557;51.670;7.788;2023-07-20T02:18:49;15.50;99.90
11009;DHT22;5557;51.670;7.788;2023-07-20T02:21:17;15.40;99.90
11009;DHT22;5557;51.670;7.788;2023-07-20T02:23:45;15.40;99.90
11009;DHT22;5557;51.670;7.788;2023-07-20T02:26:13;15.40;99.90
11009;DHT22;5557;51.670;7.788;2023-07-20T02:28:42;15.40;99.90
11009;DHT22;5557;51.670;7.788;2023-07-20T02:31:10;15.50;99.90
11009;DHT22;5557;51.670;7.788;2023-07-20T02:33:37;15.50;99.90
11009;DHT22;5557;51.670;7.788;2023-07-20T02:36:06;15.40;99.90
11009;DHT22;5557;51.670;7.788;2023-07-20T02:38:34;15.40;99.90
11009;DHT22;5557;51.670;7.788;2023-07-20T02:41:01;15.40;99.90
11009;DHT22;5557;51.670;7.788;2023-07-20T02:43:29;15.50;99.90
11009;DHT22;5557;51.670;7.788;2023-07-20T02:45:57;15.40;99.90
11009;DHT22;5557;51.670;7.788;2023-07-20T02:48:24;15.40;99.90
11009;DHT22;5557;51.670;7.788;2023-07-20T02:50:52;15.50;99.90
11009;DHT22;5557;51.670;7.788;2023-07-20T02:53:19;15.50;99.90
11009;DHT22;5557;51.670;7.788;2023-07-20T02:55:46;15.50;99.90
11009;DHT22;5557;51.670;7.788;2023-07-20T02:58:15;15.50;99.90
11009;DHT22;5557;51.670;7.788;2023-07-20T03:00:43;15.50;99.90
11009;DHT22;5557;51.670;7.788;2023-07-20T03:03:11;15.50;99.90
11009;DHT22;5557;51.670;7.788;2023-07-20T03:05:41;15.50;99.90
11009;DHT22;5557;51.670;7.788;2023-07-20T03:08:08;15.50;99.90
11009;DHT22;5557;51.670;7.788;2023-07-20T03:10:40;15.50;99.90
11009;DHT22;5557;51.670;7.788;2023-07-20T03:13:09;15.60;99.90
11009;DHT22;5557;51.670;7.788;2023-07-20T03:15:39;15.60;99.90
11009;DHT22;5557;51.670;7.788;2023-07-20T03:18:06;15.60;99.90
11009;DHT22;5557;51.670;7.788;2023-07-20T03:20:35;15.60;99.90
11009;DHT22;5557;51.670;7.788;2023-07-20T03:23:03;15.60;99.90
11009;DHT22;5557;51.670;7.788;2023-07-20T03:25:31;15.60;99.90
11009;DHT22;5557;51.670;7.788;2023-07-20T03:28:00;15.50;99.90
11009;DHT22;5557;51.670;7.788;2023-07-20T03:30:28;15.60;99.90
11009;DHT22;5557;51.670;7.788;2023-07-20T03:32:56;15.60;99.90
11009;DHT22;5557;51.670;7.788;2023-07-20T03:35:25;15.60;99.90
11009;DHT22;5557;51.670;7.788;2023-07-20T03:37:53;15.60;99.90
11009;DHT22;5557;51.670;7.788;2023-07-20T03:40:20;15.60;99.90
11009;DHT22;5557;51.670;7.788;2023-07-20T03:42:47;15.60;99.90
11009;DHT22;5557;51.670;7.788;2023-07-20T03:45:14;15.60;99.90
11009;DHT22;5557;51.670;7.788;2023-07-20T03:47:41;15.60;99.90
11009;DHT22;5557;51.670;7.788;2023-07-20T03:50:09;15.60;99.90
11009;DHT22;5557;51.670;7.788;2023-07-20T03:52:37;15.60;99.90
11009;DHT22;5557;51.670;7.788;2023-07-20T03:55:04;15.50;99.90
11009;DHT22;5557;51.670;7.788;2023-07-20T03:57:32;15.50;99.90
11009;DHT22;5557;51.670;7.788;2023-07-20T04:00:00;15.50;99.90
11009;DHT22;5557;51.670;7.788;2023-07-20T04:02:27;15.50;99.90
11009;DHT22;5557;51.670;7.788;2023-07-20T04:04:54;15.50;99.90
11009;DHT22;5557;51.670;7.788;2023-07-20T04:07:21;15.50;99.90
11009;DHT22;5557;51.670;7.788;2023-07-20T04:09:48;15.50;99.90
11009;DHT22;5557;51.670;7.788;2023-07-20T04:12:15;15.50;99.90
11009;DHT22;5557;51.670;7.788;2023-07-20T04:14:42;15.50;99.90
11009;DHT22;5557;51.670;7.788;2023-07-20T04:17:09;15.60;99.90
11009;DHT22;5557;51.670;7.788;2023-07-20T04:19:39;15.60;99.90
11009;DHT22;5557;51.670;7.788;2023-07-20T04:22:06;15.60;99.90
11009;DHT22;5557;51.670;7.788;2023-07-20T04:24:33;15.60;99.90
11009;DHT22;5557;51.670;7.788;2023-07-20T04:27:00;15.60;99.90
11009;DHT22;5557;51.670;7.788;2023-07-20T04:29:27;15.60;99.90
11009;DHT22;5557;51.670;7.788;2023-07-20T04:31:54;15.60;99.90
11009;DHT22;5557;51.670;7.788;2023-07-20T04:34:21;15.60;99.90
11009;DHT22;5557;51.670;7.788;2023-07-20T04:36:50;15.60;99.90
11009;DHT22;5557;51.670;7.788;2023-07-20T04:39:17;15.50;99.90
11009;DHT22;5557;51.670;7.788;2023-07-20T04:41:57;15.40;99.90
11009;DHT22;5557;51.670;7.788;2023-07-20T04:44:25;15.20;99.90
11009;DHT22;5557;51.670;7.788;2023-07-20T04:46:51;15.10;99.90
11009;DHT22;5557;51.670;7.788;2023-07-20T04:49:19;15.10;99.90
11009;DHT22;5557;51.670;7.788;2023-07-20T04:51:46;15.10;99.90
11009;DHT22;5557;51.670;7.788;2023-07-20T04:54:13;15.10;99.90
11009;DHT22;5557;51.670;7.788;2023-07-20T04:56:40;15.10;99.90
11009;DHT22;5557;51.670;7.788;2023-07-20T04:59:07;15.10;99.90
11009;DHT22;5557;51.670;7.788;2023-07-20T05:01:34;15.10;99.90
11009;DHT22;5557;51.670;7.788;2023-07-20T05:04:02;15.10;99.90
11009;DHT22;5557;51.670;7.788;2023-07-20T05:06:29;15.10;99.90
11009;DHT22;5557;51.670;7.788;2023-07-20T05:08:56;15.10;99.90
11009;DHT22;5557;51.670;7.788;2023-07-20T05:11:23;15.10;99.90
11009;DHT22;5557;51.670;7.788;2023-07-20T05:13:50;15.20;99.90
11009;DHT22;5557;51.670;7.788;2023-07-20T05:16:17;15.30;99.90
11009;DHT22;5557;51.670;7.788;2023-07-20T05:18:44;15.50;99.90
11009;DHT22;5557;51.670;7.788;2023-07-20T05:21:12;15.50;99.90
11009;DHT22;5557;51.670;7.788;2023-07-20T05:23:39;15.60;99.90
11009;DHT22;5557;51.670;7.788;2023-07-20T05:26:06;15.70;99.90
11009;DHT22;5557;51.670;7.788;2023-07-20T05:28:33;15.90;99.90
11009;DHT22;5557;51.670;7.788;2023-07-20T05:31:02;16.10;99.90
11009;DHT22;5557;51.670;7.788;2023-07-20T05:33:30;16.20;99.90
11009;DHT22;5557;51.670;7.788;2023-07-20T05:35:57;16.30;99.90
11009;DHT22;5557;51.670;7.788;2023-07-20T05:38:24;16.30;99.90
11009;DHT22;5557;51.670;7.788;2023-07-20T05:40:51;16.20;99.90
11009;DHT22;5557;51.670;7.788;2023-07-20T05:43:18;16.20;99.90
11009;DHT22;5557;51.670;7.788;2023-07-20T05:45:46;16.40;99.90
11009;DHT22;5557;51.670;7.788;2023-07-20T05:48:14;16.70;99.90
11009;DHT22;5557;51.670;7.788;2023-07-20T05:50:43;16.90;99.90
11009;DHT22;5557;51.670;7.788;2023-07-20T05:53:11;17.10;99.90
11009;DHT22;5557;51.670;7.788;2023-07-20T05:55:38;17.00;95.90
11009;DHT22;5557;51.670;7.788;2023-07-20T05:58:06;16.90;97.80
11009;DHT22;5557;51.670;7.788;2023-07-20T06:00:33;17.00;99.90
11009;DHT22;5557;51.670;7.788;2023-07-20T06:03:00;17.40;99.90
11009;DHT22;5557;51.670;7.788;2023-07-20T06:05:27;18.10;90.10
11009;DHT22;5557;51.670;7.788;2023-07-20T06:07:55;18.20;72.60
11009;DHT22;5557;51.670;7.788;2023-07-20T06:10:24;18.00;75.20
11009;DHT22;5557;51.670;7.788;2023-07-20T06:12:51;17.80;79.30
11009;DHT22;5557;51.670;7.788;2023-07-20T06:15:31;17.50;87.40
11009;DHT22;5557;51.670;7.788;2023-07-20T06:17:58;17.40;91.70
11009;DHT22;5557;51.670;7.788;2023-07-20T06:20:25;17.30;94.30
11009;DHT22;5557;51.670;7.788;2023-07-20T06:22:52;17.20;92.90
11009;DHT22;5557;51.670;7.788;2023-07-20T06:25:19;17.10;92.20
11009;DHT22;5557;51.670;7.788;2023-07-20T06:27:49;17.00;94.50
11009;DHT22;5557;51.670;7.788;2023-07-20T06:30:18;16.80;95.10
11009;DHT22;5557;51.670;7.788;2023-07-20T06:32:45;16.70;93.50
11009;DHT22;5557;51.670;7.788;2023-07-20T06:35:13;16.60;93.50
11009;DHT22;5557;51.670;7.788;2023-07-20T06:37:40;16.60;91.30
11009;DHT22;5557;51.670;7.788;2023-07-20T06:40:07;16.80;91.60
11009;DHT22;5557;51.670;7.788;2023-07-20T06:42:41;16.90;87.40
11009;DHT22;5557;51.670;7.788;2023-07-20T06:45:11;17.30;90.80
11009;DHT22;5557;51.670;7.788;2023-07-20T06:47:39;18.30;73.50
11009;DHT22;5557;51.670;7.788;2023-07-20T06:50:10;19.40;51.50
11009;DHT22;5557;51.670;7.788;2023-07-20T06:52:43;20.40;27.60
11009;DHT22;5557;51.670;7.788;2023-07-20T06:55:10;21.50;19.30
11009;DHT22;5557;51.670;7.788;2023-07-20T06:57:37;22.50;1.00
11009;DHT22;5557;51.670;7.788;2023-07-20T07:00:05;22.40;1.00
11009;DHT22;5557;51.670;7.788;2023-07-20T07:02:33;22.00;1.00
11009;DHT22;5557;51.670;7.788;2023-07-20T07:05:01;22.10;1.00
11009;DHT22;5557;51.670;7.788;2023-07-20T07:07:44;22.40;1.00
11009;DHT22;5557;51.670;7.788;2023-07-20T07:10:11;22.30;1.00
11009;DHT22;5557;51.670;7.788;2023-07-20T07:12:38;22.40;1.00
11009;DHT22;5557;51.670;7.788;2023-07-20T07:15:06;22.50;1.00
11009;DHT22;5557;51.670;7.788;2023-07-20T07:17:34;22.80;1.00
11009;DHT22;5557;51.670;7.788;2023-07-20T07:20:05;23.00;1.00
11009;DHT22;5557;51.670;7.788;2023-07-20T07:22:36;23.50;1.00
11009;DHT22;5557;51.670;7.788;2023-07-20T07:25:03;24.00;1.00
11009;DHT22;5557;51.670;7.788;2023-07-20T07:27:30;24.40;1.00
11009;DHT22;5557;51.670;7.788;2023-07-20T07:29:57;24.60;1.00
11009;DHT22;5557;51.670;7.788;2023-07-20T07:32:27;25.20;1.00
11009;DHT22;5557;51.670;7.788;2023-07-20T07:34:54;25.40;1.00
11009;DHT22;5557;51.670;7.788;2023-07-20T07:37:23;25.10;1.00
11009;DHT22;5557;51.670;7.788;2023-07-20T07:39:50;24.60;1.00
11009;DHT22;5557;51.670;7.788;2023-07-20T07:42:17;23.80;1.00
11009;DHT22;5557;51.670;7.788;2023-07-20T07:44:45;23.10;1.00
11009;DHT22;5557;51.670;7.788;2023-07-20T07:47:12;23.30;1.00
11009;DHT22;5557;51.670;7.788;2023-07-20T07:49:39;23.10;1.00
11009;DHT22;5557;51.670;7.788;2023-07-20T07:52:06;23.20;1.00
11009;DHT22;5557;51.670;7.788;2023-07-20T07:54:33;23.50;1.00
11009;DHT22;5557;51.670;7.788;2023-07-20T07:57:00;24.00;1.00
11009;DHT22;5557;51.670;7.788;2023-07-20T07:59:27;24.60;1.00
11009;DHT22;5557;51.670;7.788;2023-07-20T08:01:54;24.50;1.00
11009;DHT22;5557;51.670;7.788;2023-07-20T08:04:21;24.20;1.00
11009;DHT22;5557;51.670;7.788;2023-07-20T08:06:48;24.50;1.00
11009;DHT22;5557;51.670;7.788;2023-07-20T08:09:15;24.80;1.00
11009;DHT22;5557;51.670;7.788;2023-07-20T08:11:42;24.80;1.00
11009;DHT22;5557;51.670;7.788;2023-07-20T08:14:09;24.20;1.00
11009;DHT22;5557;51.670;7.788;2023-07-20T08:16:36;23.40;1.00
11009;DHT22;5557;51.670;7.788;2023-07-20T08:19:04;22.70;1.00
11009;DHT22;5557;51.670;7.788;2023-07-20T08:21:31;22.30;1.00
11009;DHT22;5557;51.670;7.788;2023-07-20T08:23:58;23.10;1.00
11009;DHT22;5557;51.670;7.788;2023-07-20T08:26:25;24.30;1.00
11009;DHT22;5557;51.670;7.788;2023-07-20T08:28:52;25.30;1.00
11009;DHT22;5557;51.670;7.788;2023-07-20T08:31:19;25.80;1.00
11009;DHT22;5557;51.670;7.788;2023-07-20T08:33:47;26.60;1.00
11009;DHT22;5557;51.670;7.788;2023-07-20T08:36:16;26.90;1.00
11009;DHT22;5557;51.670;7.788;2023-07-20T08:38:43;27.60;1.00
11009;DHT22;5557;51.670;7.788;2023-07-20T08:41:10;27.40;1.00
11009;DHT22;5557;51.670;7.788;2023-07-20T08:43:41;27.20;1.00
11009;DHT22;5557;51.670;7.788;2023-07-20T08:46:10;27.40;1.00
11009;DHT22;5557;51.670;7.788;2023-07-20T08:48:41;28.20;1.00
11009;DHT22;5557;51.670;7.788;2023-07-20T08:51:10;28.60;1.00
11009;DHT22;5557;51.670;7.788;2023-07-20T08:53:37;28.80;1.00
11009;DHT22;5557;51.670;7.788;2023-07-20T08:56:05;29.10;1.00
11009;DHT22;5557;51.670;7.788;2023-07-20T08:58:34;29.20;1.00
11009;DHT22;5557;51.670;7.788;2023-07-20T09:01:02;28.70;1.00
11009;DHT22;5557;51.670;7.788;2023-07-20T09:03:29;27.90;1.00
11009;DHT22;5557;51.670;7.788;2023-07-20T09:05:56;27.60;1.00
11009;DHT22;5557;51.670;7.788;2023-07-20T09:08:24;28.20;1.00
11009;DHT22;5557;51.670;7.788;2023-07-20T09:10:51;28.10;1.00
11009;DHT22;5557;51.670;7.788;2023-07-20T09:13:18;28.80;1.00
11009;DHT22;5557;51.670;7.788;2023-07-20T09:15:47;28.70;1.00
11009;DHT22;5557;51.670;7.788;2023-07-20T09:18:24;29.00;1.00
11009;DHT22;5557;51.670;7.788;2023-07-20T09:20:52;29.10;1.00
11009;DHT22;5557;51.670;7.788;2023-07-20T09:23:19;28.20;1.00
11009;DHT22;5557;51.670;7.788;2023-07-20T09:25:47;28.20;1.00
11009;DHT22;5557;51.670;7.788;2023-07-20T09:28:17;28.60;1.00
11009;DHT22;5557;51.670;7.788;2023-07-20T09:30:45;29.10;1.00
11009;DHT22;5557;51.670;7.788;2023-07-20T09:33:21;29.50;1.00
11009;DHT22;5557;51.670;7.788;2023-07-20T09:35:52;29.60;1.00
11009;DHT22;5557;51.670;7.788;2023-07-20T09:38:22;29.60;1.00
11009;DHT22;5557;51.670;7.788;2023-07-20T09:40:51;29.50;1.00
11009;DHT22;5557;51.670;7.788;2023-07-20T09:43:22;28.80;1.00
11009;DHT22;5557;51.670;7.788;2023-07-20T09:45:57;28.60;1.00
11009;DHT22;5557;51.670;7.788;2023-07-20T09:48:25;29.00;1.00
11009;DHT22;5557;51.670;7.788;2023-07-20T09:50:58;28.70;1.00
11009;DHT22;5557;51.670;7.788;2023-07-20T09:53:26;28.40;1.00
11009;DHT22;5557;51.670;7.788;2023-07-20T09:55:55;28.30;1.00
11009;DHT22;5557;51.670;7.788;2023-07-20T09:58:22;28.60;1.00
11009;DHT22;5557;51.670;7.788;2023-07-20T10:00:51;28.60;1.00
11009;DHT22;5557;51.670;7.788;2023-07-20T10:03:21;28.30;1.00
11009;DHT22;5557;51.670;7.788;2023-07-20T10:05:54;28.10;1.00
11009;DHT22;5557;51.670;7.788;2023-07-20T10:08:29;28.10;1.00
11009;DHT22;5557;51.670;7.788;2023-07-20T10:11:00;28.40;1.00
11009;DHT22;5557;51.670;7.788;2023-07-20T10:13:29;28.60;1.00
11009;DHT22;5557;51.670;7.788;2023-07-20T10:16:13;28.40;1.00
11009;DHT22;5557;51.670;7.788;2023-07-20T10:18:49;28.50;1.00
11009;DHT22;5557;51.670;7.788;2023-07-20T10:21:19;28.50;1.00
11009;DHT22;5557;51.670;7.788;2023-07-20T10:23:49;28.70;1.00
11009;DHT22;5557;51.670;7.788;2023-07-20T10:26:16;28.60;1.00
11009;DHT22;5557;51.670;7.788;2023-07-20T10:28:43;28.50;1.00
11009;DHT22;5557;51.670;7.788;2023-07-20T10:31:13;28.90;1.00
11009;DHT22;5557;51.670;7.788;2023-07-20T10:33:41;28.70;1.00
11009;DHT22;5557;51.670;7.788;2023-07-20T10:36:10;28.40;1.00
11009;DHT22;5557;51.670;7.788;2023-07-20T10:41:37;28.40;1.00
11009;DHT22;5557;51.670;7.788;2023-07-20T10:44:09;28.20;1.00
11009;DHT22;5557;51.670;7.788;2023-07-20T10:46:44;28.00;1.00
11009;DHT22;5557;51.670;7.788;2023-07-20T10:49:14;27.40;1.00
11009;DHT22;5557;51.670;7.788;2023-07-20T10:51:44;27.10;1.00
11009;DHT22;5557;51.670;7.788;2023-07-20T10:54:46;27.30;1.00
11009;DHT22;5557;51.670;7.788;2023-07-20T10:57:30;27.80;1.00
11009;DHT22;5557;51.670;7.788;2023-07-20T11:00:14;28.00;1.00
11009;DHT22;5557;51.670;7.788;2023-07-20T11:02:45;28.10;1.00
11009;DHT22;5557;51.670;7.788;2023-07-20T11:05:39;27.70;1.00
11009;DHT22;5557;51.670;7.788;2023-07-20T11:08:12;27.80;1.00
11009;DHT22;5557;51.670;7.788;2023-07-20T11:10:39;27.70;1.00
11009;DHT22;5557;51.670;7.788;2023-07-20T11:13:23;27.80;1.00
11009;DHT22;5557;51.670;7.788;2023-07-20T11:16:16;28.20;1.00
11009;DHT22;5557;51.670;7.788;2023-07-20T11:18:43;28.50;1.00
11009;DHT22;5557;51.670;7.788;2023-07-20T11:21:11;28.40;1.00
11009;DHT22;5557;51.670;7.788;2023-07-20T11:23:39;28.40;1.00
11009;DHT22;5557;51.670;7.788;2023-07-20T11:26:06;28.00;1.00
11009;DHT22;5557;51.670;7.788;2023-07-20T11:28:34;28.10;1.00
11009;DHT22;5557;51.670;7.788;2023-07-20T11:31:01;27.80;1.00
11009;DHT22;5557;51.670;7.788;2023-07-20T11:33:29;27.90;1.00
11009;DHT22;5557;51.670;7.788;2023-07-20T11:35:57;27.80;1.00
11009;DHT22;5557;51.670;7.788;2023-07-20T11:38:24;28.00;1.00
11009;DHT22;5557;51.670;7.788;2023-07-20T11:40:51;27.90;1.00
11009;DHT22;5557;51.670;7.788;2023-07-20T11:43:18;27.30;1.00
11009;DHT22;5557;51.670;7.788;2023-07-20T11:45:48;27.00;1.00
11009;DHT22;5557;51.670;7.788;2023-07-20T11:48:16;26.90;1.00
11009;DHT22;5557;51.670;7.788;2023-07-20T11:50:43;27.00;1.00
11009;DHT22;5557;51.670;7.788;2023-07-20T11:53:11;26.90;1.00
11009;DHT22;5557;51.670;7.788;2023-07-20T11:55:40;27.00;1.00
11009;DHT22;5557;51.670;7.788;2023-07-20T11:58:09;27.10;1.00
11009;DHT22;5557;51.670;7.788;2023-07-20T12:00:38;27.10;1.00
11009;DHT22;5557;51.670;7.788;2023-07-20T12:03:07;27.20;1.00
11009;DHT22;5557;51.670;7.788;2023-07-20T12:05:34;26.90;1.00
11009;DHT22;5557;51.670;7.788;2023-07-20T12:08:15;26.60;1.00
11009;DHT22;5557;51.670;7.788;2023-07-20T12:10:42;26.30;1.00
11009;DHT22;5557;51.670;7.788;2023-07-20T12:13:10;26.10;1.00
11009;DHT22;5557;51.670;7.788;2023-07-20T12:15:40;26.30;1.00
11009;DHT22;5557;51.670;7.788;2023-07-20T12:18:08;26.50;1.00
11009;DHT22;5557;51.670;7.788;2023-07-20T12:20:36;26.50;1.00
11009;DHT22;5557;51.670;7.788;2023-07-20T12:23:10;26.60;1.00
11009;DHT22;5557;51.670;7.788;2023-07-20T12:25:39;26.60;1.00
11009;DHT22;5557;51.670;7.788;2023-07-20T12:28:14;26.40;1.00
11009;DHT22;5557;51.670;7.788;2023-07-20T12:30:43;26.00;1.00
11009;DHT22;5557;51.670;7.788;2023-07-20T12:33:12;26.00;1.00
11009;DHT22;5557;51.670;7.788;2023-07-20T12:35:43;26.00;1.00
11009;DHT22;5557;51.670;7.788;2023-07-20T12:38:11;26.10;1.00
11009;DHT22;5557;51.670;7.788;2023-07-20T12:40:38;26.10;1.00
11009;DHT22;5557;51.670;7.788;2023-07-20T12:43:05;25.90;1.00
11009;DHT22;5557;51.670;7.788;2023-07-20T12:45:33;25.50;1.00
11009;DHT22;5557;51.670;7.788;2023-07-20T12:48:00;25.50;1.00
11009;DHT22;5557;51.670;7.788;2023-07-20T12:50:27;25.60;1.00
11009;DHT22;5557;51.670;7.788;2023-07-20T12:52:54;25.60;1.00
11009;DHT22;5557;51.670;7.788;2023-07-20T12:55:21;25.50;1.00
11009;DHT22;5557;51.670;7.788;2023-07-20T12:57:49;25.20;1.00
11009;DHT22;5557;51.670;7.788;2023-07-20T13:00:16;25.10;1.00
11009;DHT22;5557;51.670;7.788;2023-07-20T13:02:43;25.10;1.00
11009;DHT22;5557;51.670;7.788;2023-07-20T13:05:11;25.10;1.00
11009;DHT22;5557;51.670;7.788;2023-07-20T13:07:38;25.00;1.00
11009;DHT22;5557;51.670;7.788;2023-07-20T13:10:10;24.80;1.00
11009;DHT22;5557;51.670;7.788;2023-07-20T13:12:38;24.60;1.00
11009;DHT22;5557;51.670;7.788;2023-07-20T13:15:07;24.60;1.00
11009;DHT22;5557;51.670;7.788;2023-07-20T13:17:36;24.60;1.00
11009;DHT22;5557;51.670;7.788;2023-07-20T13:20:04;24.70;1.00
11009;DHT22;5557;51.670;7.788;2023-07-20T13:22:31;24.90;1.00
11009;DHT22;5557;51.670;7.788;2023-07-20T13:24:59;25.10;1.00
11009;DHT22;5557;51.670;7.788;2023-07-20T13:27:26;25.10;1.00
11009;DHT22;5557;51.670;7.788;2023-07-20T13:29:53;25.20;1.00
11009;DHT22;5557;51.670;7.788;2023-07-20T13:32:20;25.30;1.00
11009;DHT22;5557;51.670;7.788;2023-07-20T13:34:48;25.10;1.00
11009;DHT22;5557;51.670;7.788;2023-07-20T13:37:15;24.80;1.00
11009;DHT22;5557;51.670;7.788;2023-07-20T13:39:45;24.60;1.00
11009;DHT22;5557;51.670;7.788;2023-07-20T13:42:12;24.40;1.00
11009;DHT22;5557;51.670;7.788;2023-07-20T13:44:40;24.50;1.00
11009;DHT22;5557;51.670;7.788;2023-07-20T13:47:07;24.60;1.00
11009;DHT22;5557;51.670;7.788;2023-07-20T13:49:37;24.60;1.00
11009;DHT22;5557;51.670;7.788;2023-07-20T13:52:13;24.60;1.00
11009;DHT22;5557;51.670;7.788;2023-07-20T13:54:44;24.70;1.00
11009;DHT22;5557;51.670;7.788;2023-07-20T13:57:13;24.80;1.00
11009;DHT22;5557;51.670;7.788;2023-07-20T13:59:42;24.50;1.00
11009;DHT22;5557;51.670;7.788;2023-07-20T14:02:10;24.50;1.00
11009;DHT22;5557;51.670;7.788;2023-07-20T14:04:40;24.40;1.00
11009;DHT22;5557;51.670;7.788;2023-07-20T14:07:08;24.20;1.00
11009;DHT22;5557;51.670;7.788;2023-07-20T14:09:36;23.90;1.00
11009;DHT22;5557;51.670;7.788;2023-07-20T14:12:03;23.70;1.00
11009;DHT22;5557;51.670;7.788;2023-07-20T14:14:33;23.60;1.00
11009;DHT22;5557;51.670;7.788;2023-07-20T14:17:00;23.40;1.00
11009;DHT22;5557;51.670;7.788;2023-07-20T14:19:28;23.40;1.00
11009;DHT22;5557;51.670;7.788;2023-07-20T14:21:55;23.40;1.00
11009;DHT22;5557;51.670;7.788;2023-07-20T14:24:22;23.30;1.00
11009;DHT22;5557;51.670;7.788;2023-07-20T14:26:49;23.30;1.00
11009;DHT22;5557;51.670;7.788;2023-07-20T14:29:18;23.20;1.00
11009;DHT22;5557;51.670;7.788;2023-07-20T14:31:45;23.20;1.00
11009;DHT22;5557;51.670;7.788;2023-07-20T14:34:19;23.20;1.00
11009;DHT22;5557;51.670;7.788;2023-07-20T14:36:46;23.20;1.00
11009;DHT22;5557;51.670;7.788;2023-07-20T14:39:13;23.30;1.00
11009;DHT22;5557;51.670;7.788;2023-07-20T14:41:40;23.50;1.00
11009;DHT22;5557;51.670;7.788;2023-07-20T14:44:07;23.70;1.00
11009;DHT22;5557;51.670;7.788;2023-07-20T14:46:34;23.50;1.00
11009;DHT22;5557;51.670;7.788;2023-07-20T14:49:01;23.50;1.00
11009;DHT22;5557;51.670;7.788;2023-07-20T14:51:29;23.40;1.00
11009;DHT22;5557;51.670;7.788;2023-07-20T14:54:03;23.30;1.00
11009;DHT22;5557;51.670;7.788;2023-07-20T14:56:30;23.20;1.00
11009;DHT22;5557;51.670;7.788;2023-07-20T14:58:57;23.40;1.00
11009;DHT22;5557;51.670;7.788;2023-07-20T15:01:24;23.50;1.00
11009;DHT22;5557;51.670;7.788;2023-07-20T15:03:52;23.60;1.00
11009;DHT22;5557;51.670;7.788;2023-07-20T15:06:24;23.60;1.00
11009;DHT22;5557;51.670;7.788;2023-07-20T15:08:52;23.40;1.00
11009;DHT22;5557;51.670;7.788;2023-07-20T15:11:19;23.10;1.00
11009;DHT22;5557;51.670;7.788;2023-07-20T15:13:46;23.00;1.00
11009;DHT22;5557;51.670;7.788;2023-07-20T15:16:13;23.00;1.00
11009;DHT22;5557;51.670;7.788;2023-07-20T15:18:40;23.30;1.00
11009;DHT22;5557;51.670;7.788;2023-07-20T15:21:14;23.30;1.00
11009;DHT22;5557;51.670;7.788;2023-07-20T15:23:41;23.40;1.00
11009;DHT22;5557;51.670;7.788;2023-07-20T15:26:08;23.40;1.00
11009;DHT22;5557;51.670;7.788;2023-07-20T15:28:35;23.30;1.00
11009;DHT22;5557;51.670;7.788;2023-07-20T15:31:03;23.20;1.00
11009;DHT22;5557;51.670;7.788;2023-07-20T15:33:31;23.10;1.00
11009;DHT22;5557;51.670;7.788;2023-07-20T15:35:58;23.10;1.00
11009;DHT22;5557;51.670;7.788;2023-07-20T15:38:25;23.00;1.00
11009;DHT22;5557;51.670;7.788;2023-07-20T15:40:53;23.00;1.00
11009;DHT22;5557;51.670;7.788;2023-07-20T15:43:22;22.90;1.00
11009;DHT22;5557;51.670;7.788;2023-07-20T15:45:49;22.80;1.00
11009;DHT22;5557;51.670;7.788;2023-07-20T15:48:18;22.80;1.00
11009;DHT22;5557;51.670;7.788;2023-07-20T15:50:49;22.90;1.00
11009;DHT22;5557;51.670;7.788;2023-07-20T15:53:16;22.90;1.00
11009;DHT22;5557;51.670;7.788;2023-07-20T15:55:43;23.00;1.00
11009;DHT22;5557;51.670;7.788;2023-07-20T15:58:10;23.10;1.00
11009;DHT22;5557;51.670;7.788;2023-07-20T16:00:37;23.10;1.00
11009;DHT22;5557;51.670;7.788;2023-07-20T16:03:04;23.10;1.00
11009;DHT22;5557;51.670;7.788;2023-07-20T16:05:32;23.10;1.00
11009;DHT22;5557;51.670;7.788;2023-07-20T16:08:00;23.10;1.00
11009;DHT22;5557;51.670;7.788;2023-07-20T16:10:27;23.20;1.00
11009;DHT22;5557;51.670;7.788;2023-07-20T16:12:55;23.40;1.00